Time;durP1;ratioP1;P1;durP2;ratioP2;P2;SDS_P1;SDS_P2;PMS_P1;PMS_P2;Temp;Humidity;BMP_temperature;BMP_pressure;BME280_temperature;BME280_humidity;BME280_pressure;Samples;Min_cycle;Max_cycle;Signal;HPM_P1;HPM_P2
2022/04/29 00:00:47;;;;;;;12.80;11.23;;;13.20;99.90;;;;;;5069692;28;20460;-81
2022/04/29 00:03:15;;;;;;;11.40;9.70;;;13.20;99.90;;;;;;5069378;28;20445;-82
2022/04/29 00:05:44;;;;;;;13.90;10.53;;;13.30;99.90;;;;;;5069370;28;20472;-80
2022/04/29 00:08:12;;;;;;;14.00;11.50;;;13.10;99.90;;;;;;5069700;28;20446;-85
2022/04/29 00:10:40;;;;;;;12.63;10.80;;;13.00;99.90;;;;;;5069729;28;20961;-82
2022/04/29 00:13:12;;;;;;;15.53;10.77;;;13.00;99.90;;;;;;5069515;28;21012;-82
2022/04/29 00:15:40;;;;;;;12.57;9.80;;;13.00;99.90;;;;;;5069141;28;20979;-80
2022/04/29 00:18:07;;;;;;;11.20;10.00;;;12.90;99.90;;;;;;5069230;28;20800;-81
2022/04/29 00:20:35;;;;;;;12.07;10.50;;;12.80;99.90;;;;;;5069398;28;20562;-82
2022/04/29 00:23:03;;;;;;;11.90;9.80;;;12.70;99.90;;;;;;5069312;28;20445;-81
2022/04/29 00:25:30;;;;;;;12.30;10.47;;;12.80;99.90;;;;;;5069350;28;21039;-80
2022/04/29 00:27:58;;;;;;;13.80;10.87;;;12.80;99.90;;;;;;5069227;28;20461;-81
2022/04/29 00:30:26;;;;;;;12.07;10.17;;;12.80;99.90;;;;;;5069335;28;20456;-82
2022/04/29 00:32:53;;;;;;;14.30;10.50;;;12.60;99.90;;;;;;5069166;28;21008;-81
2022/04/29 00:35:21;;;;;;;11.37;9.83;;;12.70;99.90;;;;;;5069076;28;20461;-83
2022/04/29 00:37:51;;;;;;;13.70;10.67;;;12.70;99.90;;;;;;5072598;28;20492;-83
2022/04/29 00:40:21;;;;;;;12.03;10.73;;;12.70;99.90;;;;;;5072836;28;20448;-82
2022/04/29 00:42:49;;;;;;;10.97;9.77;;;12.70;99.90;;;;;;5072774;28;20445;-81
2022/04/29 00:45:21;;;;;;;12.17;8.93;;;12.70;99.90;;;;;;5072563;28;20468;-82
2022/04/29 00:47:50;;;;;;;11.07;8.27;;;12.60;99.90;;;;;;5072581;28;20484;-80
2022/04/29 00:50:22;;;;;;;12.97;10.63;;;12.60;99.90;;;;;;5072033;28;20499;-82
2022/04/29 00:53:00;;;;;;;14.50;10.73;;;12.60;99.90;;;;;;5072549;28;20864;-80
2022/04/29 00:55:28;;;;;;;12.93;10.00;;;12.60;99.90;;;;;;5072167;28;20987;-82
2022/04/29 00:58:02;;;;;;;12.20;9.97;;;12.70;99.90;;;;;;5072097;28;20985;-81
2022/04/29 01:00:31;;;;;;;13.23;10.50;;;12.60;99.90;;;;;;5072451;28;20453;-81
2022/04/29 01:03:01;;;;;;;13.00;10.10;;;12.80;99.90;;;;;;5073005;28;20453;-80
2022/04/29 01:05:28;;;;;;;13.77;9.30;;;12.80;99.90;;;;;;5073560;28;20453;-80
2022/04/29 01:07:56;;;;;;;11.60;9.70;;;12.80;99.90;;;;;;5072978;28;20494;-80
2022/04/29 01:10:24;;;;;;;12.00;9.90;;;12.80;99.90;;;;;;5073637;28;20449;-81
2022/04/29 01:12:54;;;;;;;11.90;10.10;;;12.70;99.90;;;;;;5072457;28;20492;-81
2022/04/29 01:15:22;;;;;;;12.07;9.97;;;12.70;99.90;;;;;;5072270;28;20453;-81
2022/04/29 01:17:52;;;;;;;15.23;10.50;;;12.70;99.90;;;;;;5072106;28;20480;-81
2022/04/29 01:20:24;;;;;;;12.90;10.00;;;12.70;99.90;;;;;;5071883;28;20449;-81
2022/04/29 01:22:53;;;;;;;12.83;10.30;;;12.70;99.90;;;;;;5071859;28;20457;-80
2022/04/29 01:25:20;;;;;;;12.80;10.67;;;12.70;99.90;;;;;;5071944;28;20502;-81
2022/04/29 01:27:49;;;;;;;14.40;11.20;;;12.90;99.90;;;;;;5072040;28;20476;-81
2022/04/29 01:30:16;;;;;;;12.87;10.90;;;12.90;99.90;;;;;;5072244;28;20445;-81
2022/04/29 01:32:44;;;;;;;11.80;10.00;;;13.00;99.90;;;;;;5071980;28;20553;-80
2022/04/29 01:35:13;;;;;;;12.70;10.70;;;12.90;99.90;;;;;;5071723;28;20476;-80
2022/04/29 01:37:42;;;;;;;10.23;9.13;;;12.90;99.90;;;;;;5071396;28;21009;-81
2022/04/29 01:40:13;;;;;;;14.60;11.50;;;12.90;99.90;;;;;;5071751;28;20457;-80
2022/04/29 01:42:41;;;;;;;12.70;11.23;;;13.00;99.90;;;;;;5072128;28;20441;-79
2022/04/29 01:45:10;;;;;;;13.60;10.50;;;13.00;99.90;;;;;;5071698;28;20543;-82
2022/04/29 01:47:37;;;;;;;13.77;10.97;;;13.10;99.90;;;;;;5070217;28;20473;-81
2022/04/29 01:50:05;;;;;;;12.43;10.20;;;13.20;99.90;;;;;;5071071;28;20465;-81
2022/04/29 01:52:33;;;;;;;12.50;9.80;;;13.00;99.90;;;;;;5071509;28;20495;-81
2022/04/29 01:55:00;;;;;;;12.60;10.50;;;13.00;99.90;;;;;;5071485;28;20457;-82
2022/04/29 01:57:29;;;;;;;13.07;10.97;;;13.00;99.90;;;;;;5071304;28;20484;-79
2022/04/29 01:59:56;;;;;;;12.10;10.40;;;12.80;99.90;;;;;;5071359;28;20445;-82
2022/04/29 02:02:23;;;;;;;14.33;11.00;;;12.80;99.90;;;;;;5071324;28;20449;-82
2022/04/29 02:04:50;;;;;;;12.53;10.60;;;12.90;99.90;;;;;;5071042;28;20457;-80
2022/04/29 02:07:17;;;;;;;11.90;10.60;;;13.00;99.90;;;;;;5071237;28;20465;-82
2022/04/29 02:09:45;;;;;;;12.33;10.10;;;12.90;99.90;;;;;;5070893;28;20457;-80
2022/04/29 02:12:12;;;;;;;12.47;9.97;;;12.90;99.90;;;;;;5070841;28;20483;-80
2022/04/29 02:14:43;;;;;;;18.23;9.90;;;13.00;99.90;;;;;;5070855;28;20453;-80
2022/04/29 02:17:12;;;;;;;12.10;9.70;;;13.00;99.90;;;;;;5070698;28;20480;-82
2022/04/29 02:19:40;;;;;;;13.20;11.03;;;13.00;99.90;;;;;;5070958;28;20456;-80
2022/04/29 02:22:09;;;;;;;12.93;11.23;;;13.10;99.90;;;;;;5071031;28;20449;-81
2022/04/29 02:24:36;;;;;;;11.00;9.40;;;13.00;99.90;;;;;;5071016;28;20437;-81
2022/04/29 02:27:04;;;;;;;12.50;10.57;;;13.00;99.90;;;;;;5070447;28;20477;-80
2022/04/29 02:29:31;;;;;;;12.53;10.17;;;13.00;99.90;;;;;;5070265;28;20453;-81
2022/04/29 02:32:00;;;;;;;13.27;11.87;;;13.00;99.90;;;;;;5070838;28;20445;-81
2022/04/29 02:34:27;;;;;;;12.73;9.93;;;13.10;99.90;;;;;;5071008;28;20449;-81
2022/04/29 02:36:55;;;;;;;12.60;11.10;;;13.10;99.90;;;;;;5070874;28;20481;-81
2022/04/29 02:39:22;;;;;;;12.60;10.17;;;13.10;99.90;;;;;;5070927;28;20461;-81
2022/04/29 02:41:50;;;;;;;11.27;10.03;;;13.10;99.90;;;;;;5070670;28;20469;-83
2022/04/29 02:44:17;;;;;;;15.00;11.40;;;13.00;99.90;;;;;;5070645;28;20594;-82
2022/04/29 02:49:26;;;;;;;13.10;11.50;;;12.80;99.90;;;;;;5070337;28;20449;-80
2022/04/29 02:51:53;;;;;;;13.40;11.03;;;12.80;99.90;;;;;;5069800;28;20484;-82
2022/04/29 02:54:21;;;;;;;14.20;11.63;;;12.70;99.90;;;;;;5070496;28;20453;-80
2022/04/29 02:56:50;;;;;;;14.07;11.83;;;12.70;99.90;;;;;;5070222;28;20584;-82
2022/04/29 02:59:17;;;;;;;14.30;11.33;;;12.70;99.90;;;;;;5069784;28;20521;-80
2022/04/29 03:01:44;;;;;;;13.43;10.73;;;12.80;99.90;;;;;;5070334;28;20452;-82
2022/04/29 03:04:11;;;;;;;12.47;10.17;;;12.80;99.90;;;;;;5069995;28;20453;-80
2022/04/29 03:06:40;;;;;;;12.60;10.60;;;12.80;99.90;;;;;;5069890;28;20460;-81
2022/04/29 03:09:07;;;;;;;13.20;11.80;;;12.80;99.90;;;;;;5070347;28;20809;-81
2022/04/29 03:11:34;;;;;;;13.13;11.10;;;12.80;99.90;;;;;;5070081;28;20457;-81
2022/04/29 03:14:01;;;;;;;13.63;11.13;;;12.90;99.90;;;;;;5070048;28;20489;-81
2022/04/29 03:16:29;;;;;;;13.97;12.40;;;12.90;99.90;;;;;;5070033;28;20964;-81
2022/04/29 03:18:56;;;;;;;15.37;11.47;;;12.90;99.90;;;;;;5069588;28;20483;-80
2022/04/29 03:21:23;;;;;;;14.10;11.53;;;12.80;99.90;;;;;;5069585;28;20453;-81
2022/04/29 03:23:52;;;;;;;13.67;11.20;;;12.60;99.90;;;;;;5069856;28;20458;-81
2022/04/29 03:26:19;;;;;;;12.93;10.53;;;12.70;99.90;;;;;;5069673;28;20958;-80
2022/04/29 03:28:46;;;;;;;12.50;10.57;;;12.70;99.90;;;;;;5069850;28;20452;-82
2022/04/29 03:31:13;;;;;;;14.93;10.97;;;12.90;99.90;;;;;;5069600;28;20457;-82
2022/04/29 03:33:40;;;;;;;13.73;12.03;;;12.90;99.90;;;;;;5069809;28;20489;-83
2022/04/29 03:36:08;;;;;;;14.90;12.43;;;12.90;99.90;;;;;;5069739;28;20449;-82
2022/04/29 03:38:36;;;;;;;14.20;11.67;;;12.90;99.90;;;;;;5069733;28;20538;-82
2022/04/29 03:41:05;;;;;;;15.27;12.50;;;12.80;99.90;;;;;;5069672;28;21006;-81
2022/04/29 03:43:33;;;;;;;13.67;11.57;;;12.80;99.90;;;;;;5069830;28;20812;-79
2022/04/29 03:46:00;;;;;;;13.30;10.87;;;12.90;99.90;;;;;;5069284;28;20453;-81
2022/04/29 03:48:28;;;;;;;13.97;11.83;;;13.00;99.90;;;;;;5069714;28;20485;-80
2022/04/29 03:50:55;;;;;;;13.83;11.30;;;13.00;99.90;;;;;;5069249;28;20488;-81
2022/04/29 03:53:24;;;;;;;13.80;11.97;;;13.00;99.90;;;;;;5069470;28;20883;-81
2022/04/29 03:55:51;;;;;;;14.17;11.37;;;12.90;99.90;;;;;;5071240;28;20510;-80
2022/04/29 03:58:20;;;;;;;13.97;11.20;;;13.00;99.90;;;;;;5070952;28;21000;-81
2022/04/29 04:00:47;;;;;;;15.63;11.90;;;13.00;99.90;;;;;;5071297;28;20449;-81
2022/04/29 04:03:14;;;;;;;14.50;11.57;;;13.00;99.90;;;;;;5070658;28;20444;-83
2022/04/29 04:06:49;;;;;;;14.10;11.30;;;12.90;99.90;;;;;;5069504;28;20457;-81
2022/04/29 04:08:30;;;;;;;13.50;10.97;;;12.90;99.90;;;;;;5069085;28;20479;-80
2022/04/29 04:10:57;;;;;;;16.17;11.40;;;13.00;99.90;;;;;;5070350;28;20463;-81
2022/04/29 04:13:26;;;;;;;12.03;10.73;;;13.10;99.90;;;;;;5073482;28;20542;-79
2022/04/29 04:15:53;;;;;;;12.30;10.63;;;13.10;99.90;;;;;;5073564;28;20456;-80
2022/04/29 04:18:20;;;;;;;13.40;10.33;;;13.10;99.90;;;;;;5073368;28;20468;-77
2022/04/29 04:20:48;;;;;;;12.90;10.30;;;13.20;99.90;;;;;;5073596;28;20463;-82
2022/04/29 04:23:15;;;;;;;13.93;12.03;;;13.10;99.90;;;;;;5073997;28;20445;-81
2022/04/29 04:25:42;;;;;;;15.50;12.30;;;13.10;99.90;;;;;;5073332;28;20859;-81
2022/04/29 04:28:13;;;;;;;15.67;12.60;;;13.10;99.90;;;;;;5073014;28;20813;-81
2022/04/29 04:30:41;;;;;;;14.30;11.77;;;13.00;99.90;;;;;;5073429;28;20453;-80
2022/04/29 04:33:08;;;;;;;14.70;12.03;;;13.00;99.90;;;;;;5073563;28;20492;-79
2022/04/29 04:35:35;;;;;;;22.90;19.37;;;12.90;99.90;;;;;;5073876;28;20445;-79
2022/04/29 04:38:02;;;;;;;15.20;11.50;;;12.90;99.90;;;;;;5073745;28;20476;-82
2022/04/29 04:40:30;;;;;;;14.57;12.63;;;13.00;99.90;;;;;;5073711;28;20464;-79
2022/04/29 04:42:57;;;;;;;14.60;12.10;;;13.00;99.90;;;;;;5073292;28;20445;-81
2022/04/29 04:45:25;;;;;;;13.80;11.37;;;12.90;99.90;;;;;;5072692;28;20453;-76
2022/04/29 04:47:53;;;;;;;17.13;11.97;;;12.80;99.90;;;;;;5072775;28;20491;-81
2022/04/29 04:50:20;;;;;;;14.80;11.73;;;12.70;99.90;;;;;;5073269;28;20495;-79
2022/04/29 04:52:47;;;;;;;17.03;12.83;;;12.80;99.90;;;;;;5076747;28;20924;-84
2022/04/29 04:55:15;;;;;;;16.10;12.80;;;12.60;99.90;;;;;;5078255;28;20453;-82
2022/04/29 04:57:42;;;;;;;16.77;13.70;;;12.70;99.90;;;;;;5077898;28;20988;-81
2022/04/29 05:00:10;;;;;;;19.00;13.70;;;12.90;99.90;;;;;;5077151;28;20991;-82
2022/04/29 05:02:40;;;;;;;15.17;13.07;;;13.00;99.90;;;;;;5078766;28;20452;-83
2022/04/29 05:05:10;;;;;;;20.60;13.43;;;13.20;99.90;;;;;;5072981;28;20457;-82
2022/04/29 05:07:38;;;;;;;16.30;13.33;;;13.30;99.90;;;;;;5072650;28;20507;-76
2022/04/29 05:10:07;;;;;;;20.73;14.03;;;13.30;99.90;;;;;;5072103;28;20856;-75
2022/04/29 05:12:39;;;;;;;18.47;14.47;;;13.30;99.90;;;;;;5071791;28;20445;-73
2022/04/29 05:15:08;;;;;;;17.87;14.53;;;13.30;99.90;;;;;;5072081;28;20532;-77
2022/04/29 05:17:35;;;;;;;18.13;14.47;;;13.30;99.90;;;;;;5071999;28;21055;-75
2022/04/29 05:20:02;;;;;;;18.83;14.33;;;13.10;99.90;;;;;;5070454;28;20449;-75
2022/04/29 05:22:31;;;;;;;19.07;15.10;;;13.30;99.90;;;;;;5071354;28;20460;-75
2022/04/29 05:24:58;;;;;;;19.77;15.60;;;13.40;99.90;;;;;;5070950;28;20445;-76
2022/04/29 05:27:25;;;;;;;19.47;15.80;;;13.50;99.90;;;;;;5071057;28;20835;-76
2022/04/29 05:29:52;;;;;;;19.63;15.83;;;13.50;99.90;;;;;;5071627;28;20790;-74
2022/04/29 05:32:21;;;;;;;21.07;14.90;;;13.50;99.90;;;;;;5071491;28;20452;-74
2022/04/29 05:34:48;;;;;;;18.87;14.40;;;13.60;99.90;;;;;;5071418;28;20793;-67
2022/04/29 05:37:15;;;;;;;19.57;14.33;;;13.70;99.90;;;;;;5071485;28;20465;-68
2022/04/29 05:42:29;;;;;;;18.60;13.90;;;14.00;99.90;;;;;;5071495;28;20437;-69
2022/04/29 05:44:56;;;;;;;18.30;14.40;;;13.90;99.90;;;;;;5071349;28;20453;-69
2022/04/29 05:47:23;;;;;;;17.00;13.00;;;14.00;99.90;;;;;;5071155;28;20480;-75
2022/04/29 05:49:50;;;;;;;15.13;12.60;;;14.00;99.90;;;;;;5071071;28;20461;-75
2022/04/29 05:52:17;;;;;;;17.23;15.33;;;14.10;99.90;;;;;;5071113;28;20445;-76
2022/04/29 05:54:46;;;;;;;17.13;13.23;;;13.90;99.90;;;;;;5071026;28;20495;-71
2022/04/29 05:57:13;;;;;;;15.33;12.43;;;14.00;99.90;;;;;;5070480;28;20508;-72
2022/04/29 05:59:40;;;;;;;16.40;14.10;;;14.20;99.90;;;;;;5070820;28;20456;-73
2022/04/29 06:02:08;;;;;;;16.87;14.13;;;14.30;99.90;;;;;;5070968;28;20846;-73
2022/04/29 06:04:35;;;;;;;17.37;14.33;;;14.30;99.90;;;;;;5070840;28;20448;-74
2022/04/29 06:07:02;;;;;;;14.33;12.80;;;14.30;99.90;;;;;;5070772;28;20548;-72
2022/04/29 06:09:30;;;;;;;13.80;12.10;;;14.30;99.90;;;;;;5070885;28;20547;-72
2022/04/29 06:11:58;;;;;;;19.57;13.30;;;14.40;99.90;;;;;;5070944;28;20457;-74
2022/04/29 06:14:25;;;;;;;20.90;13.60;;;14.60;99.90;;;;;;5070347;28;20488;-72
2022/04/29 06:16:52;;;;;;;14.80;13.03;;;14.70;99.90;;;;;;5070491;28;20477;-75
2022/04/29 06:19:19;;;;;;;17.13;13.53;;;14.60;99.90;;;;;;5070580;28;20938;-75
2022/04/29 06:21:46;;;;;;;18.33;14.00;;;14.70;99.90;;;;;;5070207;28;20468;-76
2022/04/29 06:24:14;;;;;;;18.67;14.33;;;14.70;99.90;;;;;;5070762;28;20445;-77
2022/04/29 06:26:41;;;;;;;15.33;12.80;;;14.70;99.90;;;;;;5070573;28;20484;-76
2022/04/29 06:29:10;;;;;;;20.37;13.77;;;14.80;99.90;;;;;;5070183;28;20995;-77
2022/04/29 06:31:37;;;;;;;15.07;13.27;;;14.80;99.90;;;;;;5070083;28;20453;-76
2022/04/29 06:34:04;;;;;;;16.13;12.50;;;14.90;99.90;;;;;;5069646;28;20485;-68
2022/04/29 06:36:32;;;;;;;17.03;13.77;;;14.90;99.90;;;;;;5070121;28;20460;-71
2022/04/29 06:38:59;;;;;;;15.20;12.37;;;14.90;99.90;;;;;;5070208;28;20460;-78
2022/04/29 06:41:26;;;;;;;15.90;12.30;;;15.00;99.90;;;;;;5069737;28;20458;-72
2022/04/29 06:43:54;;;;;;;17.00;13.40;;;15.00;99.90;;;;;;5069800;28;20449;-81
2022/04/29 06:46:24;;;;;;;15.47;12.20;;;14.80;99.90;;;;;;5071760;28;20453;-81
2022/04/29 06:48:53;;;;;;;14.00;11.93;;;14.80;99.90;;;;;;5074355;28;20936;-79
2022/04/29 06:51:20;;;;;;;18.37;12.57;;;14.70;99.90;;;;;;5074685;28;20852;-81
2022/04/29 06:53:47;;;;;;;15.67;12.77;;;14.80;99.90;;;;;;5075157;28;20492;-79
2022/04/29 06:56:14;;;;;;;17.50;12.20;;;14.70;99.90;;;;;;5074697;28;20453;-80
2022/04/29 06:58:41;;;;;;;13.43;12.03;;;14.70;99.90;;;;;;5073152;28;20469;-78
2022/04/29 07:01:09;;;;;;;16.43;12.07;;;14.80;99.90;;;;;;5074040;28;20495;-82
2022/04/29 07:03:39;;;;;;;12.37;11.07;;;15.10;99.90;;;;;;5074204;28;20445;-79
2022/04/29 07:06:06;;;;;;;15.10;12.17;;;15.30;99.90;;;;;;5074724;28;20463;-79
2022/04/29 07:08:34;;;;;;;12.83;10.50;;;15.60;99.90;;;;;;5075119;28;20476;-78
2022/04/29 07:11:01;;;;;;;13.13;11.73;;;15.60;99.90;;;;;;5074109;28;20449;-76
2022/04/29 07:13:28;;;;;;;14.03;11.10;;;15.70;99.90;;;;;;5073897;28;20996;-81
2022/04/29 07:15:55;;;;;;;14.40;12.30;;;15.50;99.90;;;;;;5074551;28;20800;-81
2022/04/29 07:18:22;;;;;;;15.00;11.97;;;15.70;99.90;;;;;;5074768;28;20473;-75
2022/04/29 07:20:51;;;;;;;14.90;11.80;;;15.90;99.90;;;;;;5074996;28;20937;-80
2022/04/29 07:23:18;;;;;;;14.50;10.90;;;16.10;99.90;;;;;;5075789;28;20453;-79
2022/04/29 07:25:46;;;;;;;14.30;11.67;;;16.20;99.90;;;;;;5073672;28;20453;-80
2022/04/29 07:28:13;;;;;;;15.17;11.80;;;16.30;99.90;;;;;;5073917;28;20981;-82
2022/04/29 07:30:40;;;;;;;14.00;12.20;;;16.40;99.90;;;;;;5072687;28;20821;-84
2022/04/29 07:33:07;;;;;;;12.90;11.50;;;16.40;99.90;;;;;;5072107;28;20460;-80
2022/04/29 07:43:49;;;;;;;14.03;11.63;;;17.20;99.90;;;;;;5071950;28;20424;-80
2022/04/29 07:46:16;;;;;;;17.23;13.03;;;17.40;99.90;;;;;;5073438;28;20746;-80
2022/04/29 07:48:44;;;;;;;14.30;11.47;;;17.30;99.90;;;;;;5076627;28;20499;-80
2022/04/29 07:51:11;;;;;;;14.20;11.80;;;17.20;99.90;;;;;;5077378;28;20493;-76
2022/04/29 07:53:39;;;;;;;14.00;12.00;;;16.90;99.90;;;;;;5079370;28;20901;-81
2022/04/29 07:56:06;;;;;;;13.17;11.40;;;17.00;99.90;;;;;;5078498;28;20452;-77
2022/04/29 07:58:34;;;;;;;12.70;11.13;;;17.10;99.90;;;;;;5078446;28;20485;-76
2022/04/29 08:01:01;;;;;;;12.47;10.00;;;17.10;99.90;;;;;;5078709;28;20453;-82
2022/04/29 08:03:28;;;;;;;11.77;9.80;;;17.20;99.90;;;;;;5077338;28;20457;-83
2022/04/29 08:05:55;;;;;;;12.60;10.37;;;17.30;99.90;;;;;;5076856;28;20850;-80
2022/04/29 08:08:23;;;;;;;12.10;9.80;;;17.40;99.90;;;;;;5077024;28;20865;-85
2022/04/29 08:10:52;;;;;;;15.33;10.97;;;17.50;99.90;;;;;;5075407;28;20767;-84
2022/04/29 08:13:19;;;;;;;12.30;10.87;;;17.40;99.90;;;;;;5076035;28;20518;-82
2022/04/29 08:15:48;;;;;;;12.67;9.90;;;17.30;99.90;;;;;;5076128;28;20541;-82
2022/04/29 08:18:15;;;;;;;12.63;9.67;;;17.30;99.90;;;;;;5073007;28;20559;-82
2022/04/29 08:20:43;;;;;;;10.97;8.93;;;17.30;99.90;;;;;;5073157;28;20863;-70
2022/04/29 08:23:10;;;;;;;9.53;7.83;;;17.50;99.90;;;;;;5072863;28;20869;-69
2022/04/29 08:25:39;;;;;;;10.20;9.10;;;17.60;99.90;;;;;;5072228;28;20510;-73
2022/04/29 08:28:07;;;;;;;11.50;10.30;;;17.50;99.90;;;;;;5072541;28;20460;-72
2022/04/29 08:30:35;;;;;;;12.17;9.60;;;17.40;99.90;;;;;;5072929;28;20456;-74
2022/04/29 08:33:02;;;;;;;10.13;8.63;;;17.20;99.90;;;;;;5072726;28;20891;-74
2022/04/29 08:35:30;;;;;;;11.50;9.47;;;17.20;99.90;;;;;;5072596;28;20489;-70
2022/04/29 08:37:58;;;;;;;12.03;10.13;;;17.10;99.90;;;;;;5072782;28;20445;-69
2022/04/29 08:40:27;;;;;;;11.80;9.23;;;17.10;99.90;;;;;;5072458;28;20464;-71
2022/04/29 08:42:57;;;;;;;11.30;9.00;;;16.90;99.90;;;;;;5072383;28;20461;-70
2022/04/29 08:45:25;;;;;;;13.80;10.13;;;16.70;99.90;;;;;;5072389;28;20479;-71
2022/04/29 08:47:52;;;;;;;14.00;10.13;;;16.60;99.90;;;;;;5072392;28;20453;-71
2022/04/29 08:50:21;;;;;;;12.17;10.00;;;16.70;99.90;;;;;;5071886;28;20976;-73
2022/04/29 08:52:50;;;;;;;12.30;9.83;;;16.80;99.90;;;;;;5072267;28;20460;-73
2022/04/29 09:00:48;;;;;;;10.17;8.10;;;17.10;99.90;;;;;;5072004;28;20427;-74
2022/04/29 09:03:18;;;;;;;12.27;8.97;;;17.20;99.90;;;;;;5071856;28;20461;-72
2022/04/29 09:05:46;;;;;;;12.50;9.00;;;17.30;99.90;;;;;;5071932;28;20976;-73
2022/04/29 09:08:15;;;;;;;9.73;8.60;;;17.40;99.90;;;;;;5072042;28;20456;-75
2022/04/29 09:10:51;;;;;;;9.33;7.60;;;17.30;99.90;;;;;;5071961;28;20472;-72
2022/04/29 09:13:19;;;;;;;11.17;8.00;;;17.50;99.90;;;;;;5072300;28;20449;-71
2022/04/29 09:15:49;;;;;;;9.67;8.57;;;17.70;99.90;;;;;;5071472;28;20993;-72
2022/04/29 09:18:29;;;;;;;11.77;9.17;;;17.60;99.90;;;;;;5071622;28;20832;-73
2022/04/29 09:20:56;;;;;;;9.13;8.13;;;17.70;99.90;;;;;;5071858;28;21029;-70
2022/04/29 09:23:27;;;;;;;11.50;9.20;;;17.70;99.90;;;;;;5071875;28;20461;-73
2022/04/29 09:25:56;;;;;;;10.40;8.53;;;17.70;99.90;;;;;;5071703;28;20984;-67
2022/04/29 09:28:24;;;;;;;9.97;8.50;;;17.70;99.90;;;;;;5071794;28;20917;-65
2022/04/29 09:30:55;;;;;;;9.77;7.93;;;17.60;99.90;;;;;;5071550;28;20498;-64
2022/04/29 09:33:24;;;;;;;10.33;8.20;;;17.70;99.90;;;;;;5071497;28;20960;-65
2022/04/29 09:35:52;;;;;;;11.20;8.40;;;17.90;99.90;;;;;;5071358;28;20868;-64
2022/04/29 09:41:04;;;;;;;9.70;6.97;;;18.00;99.00;;;;;;5071178;28;20456;-69
2022/04/29 09:43:42;;;;;;;9.47;7.70;;;18.00;98.60;;;;;;5067655;28;20473;-68
2022/04/29 09:46:12;;;;;;;11.93;8.80;;;18.00;98.20;;;;;;5070735;28;20464;-68
2022/04/29 09:48:59;;;;;;;12.20;7.93;;;17.90;98.10;;;;;;5064808;28;20466;-68
2022/04/29 09:51:41;;;;;;;9.50;8.50;;;17.70;97.90;;;;;;5050530;28;20566;-69
2022/04/29 09:54:14;;;;;;;8.87;7.40;;;17.90;98.50;;;;;;5050711;28;20785;-69
2022/04/29 09:56:42;;;;;;;10.90;8.37;;;18.10;98.80;;;;;;5050988;28;20790;-69
2022/04/29 09:59:09;;;;;;;9.43;8.00;;;18.20;98.30;;;;;;5051012;28;20474;-68
2022/04/29 10:01:38;;;;;;;14.37;12.10;;;18.30;97.50;;;;;;5050541;28;20458;-68
2022/04/29 10:04:05;;;;;;;9.17;7.87;;;18.40;97.40;;;;;;5050853;28;20802;-66
2022/04/29 10:06:33;;;;;;;12.00;10.67;;;18.60;96.80;;;;;;5051044;28;20449;-71
2022/04/29 10:09:01;;;;;;;9.47;8.20;;;18.70;95.80;;;;;;5050080;28;20585;-71
2022/04/29 10:11:29;;;;;;;8.37;7.00;;;18.80;95.20;;;;;;5051033;28;20461;-70
2022/04/29 10:14:03;;;;;;;7.97;6.93;;;19.00;94.70;;;;;;5050805;28;20471;-72
2022/04/29 10:16:33;;;;;;;11.50;8.47;;;19.20;94.70;;;;;;5050469;28;21027;-70
2022/04/29 10:21:50;;;;;;;9.60;8.07;;;19.30;93.30;;;;;;5050605;28;20581;-71
2022/04/29 10:24:17;;;;;;;9.27;8.00;;;19.30;92.90;;;;;;5050450;28;20832;-68
2022/04/29 10:26:45;;;;;;;9.90;7.80;;;19.40;92.20;;;;;;5050146;28;20460;-72
2022/04/29 10:29:12;;;;;;;8.03;6.90;;;19.50;92.00;;;;;;5050426;28;20911;-69
2022/04/29 10:31:39;;;;;;;8.93;7.63;;;19.40;92.00;;;;;;5050035;28;20449;-73
2022/04/29 10:34:29;;;;;;;8.77;7.50;;;19.60;91.00;;;;;;5050301;28;20446;-71
2022/04/29 10:36:57;;;;;;;8.37;6.87;;;19.70;91.10;;;;;;5049956;28;20457;-74
2022/04/29 10:39:24;;;;;;;12.80;9.00;;;19.80;90.40;;;;;;5050027;28;20997;-72
2022/04/29 10:42:10;;;;;;;8.23;7.17;;;19.80;90.30;;;;;;5050338;28;20545;-72
2022/04/29 10:45:00;;;;;;;8.63;7.43;;;20.00;88.90;;;;;;5049888;28;20963;-73
2022/04/29 10:47:38;;;;;;;8.50;7.47;;;20.20;90.10;;;;;;5049837;28;20536;-76
2022/04/29 10:50:38;;;;;;;13.63;8.60;;;20.30;89.20;;;;;;5049579;28;20970;-71
2022/04/29 10:53:06;;;;;;;8.87;7.97;;;20.10;90.10;;;;;;5065526;28;21286;-70
2022/04/29 10:55:34;;;;;;;10.93;8.00;;;20.20;90.90;;;;;;5068447;28;20484;-74
2022/04/29 10:58:13;;;;;;;9.80;8.80;;;20.30;90.10;;;;;;5066927;28;20530;-71
2022/04/29 11:00:40;;;;;;;9.17;8.27;;;20.60;89.50;;;;;;5068863;28;20449;-73
2022/04/29 11:03:35;;;;;;;12.10;8.00;;;20.80;89.70;;;;;;5069669;28;20453;-71
2022/04/29 11:06:12;;;;;;;9.07;8.13;;;20.50;88.20;;;;;;5069886;28;20449;-73
2022/04/29 11:08:39;;;;;;;10.33;8.53;;;20.50;86.40;;;;;;5069530;28;21016;-72
2022/04/29 11:11:07;;;;;;;9.80;7.90;;;20.10;86.10;;;;;;5069493;28;20455;-72
2022/04/29 11:13:37;;;;;;;9.90;8.17;;;20.10;88.30;;;;;;5069642;28;20457;-70
2022/04/29 11:16:11;;;;;;;12.50;8.83;;;20.30;88.30;;;;;;5069700;28;20484;-74
2022/04/29 11:18:40;;;;;;;10.37;8.03;;;20.40;87.60;;;;;;5069543;28;20471;-71
2022/04/29 11:26:44;;;;;;;8.53;7.20;;;21.30;83.10;;;;;;5069619;28;20936;-64
2022/04/29 11:29:11;;;;;;;9.73;8.73;;;21.00;82.70;;;;;;5069198;28;20530;-64
2022/04/29 11:31:39;;;;;;;10.67;9.07;;;20.70;83.00;;;;;;5069344;28;20448;-63
2022/04/29 11:34:08;;;;;;;11.30;9.03;;;20.80;85.00;;;;;;5069531;28;20457;-64
2022/04/29 11:36:35;;;;;;;10.17;8.17;;;21.00;85.10;;;;;;5069404;28;20930;-64
2022/04/29 11:39:09;;;;;;;8.80;7.90;;;21.30;83.20;;;;;;5069558;28;20473;-63
2022/04/29 11:41:36;;;;;;;9.37;8.40;;;21.30;82.80;;;;;;5069317;28;20464;-72
2022/04/29 11:44:04;;;;;;;8.60;7.70;;;21.50;82.00;;;;;;5069063;28;20453;-74
2022/04/29 11:46:31;;;;;;;10.33;8.90;;;21.40;81.10;;;;;;5069435;28;20805;-71
2022/04/29 11:49:00;;;;;;;9.87;8.30;;;21.20;81.10;;;;;;5069317;28;20556;-71
2022/04/29 11:51:28;;;;;;;9.70;8.70;;;21.70;80.40;;;;;;5068969;28;20865;-69
2022/04/29 11:53:57;;;;;;;9.63;8.37;;;22.20;80.20;;;;;;5069519;28;20454;-67
2022/04/29 11:56:33;;;;;;;9.23;8.27;;;22.60;77.00;;;;;;5069127;28;20488;-67
2022/04/29 11:59:01;;;;;;;8.20;7.23;;;22.90;76.90;;;;;;5068637;28;20995;-70
2022/04/29 12:01:28;;;;;;;11.03;9.70;;;23.20;74.10;;;;;;5069199;28;20449;-68
2022/04/29 12:03:56;;;;;;;8.47;7.57;;;23.10;71.90;;;;;;5069295;28;20550;-68
2022/04/29 12:06:23;;;;;;;8.03;7.23;;;23.30;71.10;;;;;;5069282;28;20981;-69
2022/04/29 12:08:50;;;;;;;9.07;8.17;;;23.70;69.80;;;;;;5068783;28;20481;-71
2022/04/29 12:11:24;;;;;;;9.77;7.97;;;23.80;69.10;;;;;;5069243;28;20790;-64
2022/04/29 12:13:53;;;;;;;8.47;7.50;;;23.80;66.90;;;;;;5068548;28;21160;-64
2022/04/29 12:16:21;;;;;;;9.67;8.20;;;23.70;66.70;;;;;;5069105;28;20485;-64
2022/04/29 12:18:49;;;;;;;8.80;7.90;;;23.80;66.20;;;;;;5068837;28;20999;-65
2022/04/29 12:21:23;;;;;;;9.33;8.20;;;24.00;68.40;;;;;;5068967;28;20462;-73
2022/04/29 12:23:50;;;;;;;10.57;7.50;;;23.90;66.20;;;;;;5069160;28;20488;-74
2022/04/29 12:26:17;;;;;;;8.50;7.60;;;23.90;66.50;;;;;;5068570;28;20472;-67
2022/04/29 12:28:55;;;;;;;8.77;7.73;;;23.80;64.50;;;;;;5068908;28;20469;-67
2022/04/29 12:36:53;;;;;;;9.30;8.03;;;23.90;63.70;;;;;;5072395;28;20507;-69
2022/04/29 12:39:24;;;;;;;9.90;7.60;;;23.90;64.50;;;;;;5072517;28;20834;-68
2022/04/29 12:42:02;;;;;;;10.63;9.53;;;24.20;66.30;;;;;;5072524;28;20445;-69
2022/04/29 12:45:08;;;;;;;12.17;10.50;;;24.70;65.40;;;;;;5072167;28;20453;-67
2022/04/29 12:47:38;;;;;;;8.93;8.03;;;25.20;62.60;;;;;;5072293;28;20469;-68
2022/04/29 12:50:24;;;;;;;13.37;9.17;;;25.40;61.60;;;;;;5071928;28;20465;-66
2022/04/29 12:52:53;;;;;;;9.60;8.60;;;25.50;61.50;;;;;;5072018;28;20794;-67
2022/04/29 12:55:20;;;;;;;9.80;7.53;;;25.60;60.90;;;;;;5072199;28;20452;-68
2022/04/29 12:57:48;;;;;;;9.77;8.77;;;25.90;59.60;;;;;;5072196;28;20610;-67
2022/04/29 13:00:25;;;;;;;9.23;7.40;;;26.00;58.00;;;;;;5072414;28;20452;-67
2022/04/29 13:03:05;;;;;;;8.10;7.03;;;25.50;58.20;;;;;;5071791;28;20941;-67
2022/04/29 13:05:34;;;;;;;9.07;8.10;;;25.50;59.20;;;;;;5072100;28;20452;-69
2022/04/29 13:08:03;;;;;;;9.10;7.33;;;25.60;61.40;;;;;;5071978;28;20477;-66
2022/04/29 13:10:30;;;;;;;9.47;7.90;;;25.80;58.60;;;;;;5071947;28;20452;-68
2022/04/29 13:12:57;;;;;;;13.93;8.50;;;25.80;59.50;;;;;;5072085;28;20477;-69
2022/04/29 13:15:26;;;;;;;9.57;8.30;;;25.70;59.70;;;;;;5071878;28;20464;-67
2022/04/29 13:17:58;;;;;;;9.70;8.00;;;25.60;59.10;;;;;;5071716;28;20468;-67